ADDS METAR Data INFO
IDs: Format: Raw Decoded Include TAF

Data at: 2313 UTC 16 Jan 2018

KDEH 162255Z AUTO 29006KT 10SM CLR M14/M17 A3058 RMK AO2
KDEH 162235Z AUTO VRB05KT 10SM SCT009 M13/M16 A3057 RMK AO2
KDEH 162215Z AUTO VRB06G12KT 10SM SCT008 M12/M16 A3057 RMK AO2
KDEH 162155Z AUTO 30005KT 10SM CLR M11/M15 A3056 RMK AO2
KDEH 162135Z AUTO 31007KT 10SM FEW013 M11/M15 A3056 RMK AO2
KDEH 162115Z AUTO VRB05KT 10SM FEW013 M11/M14 A3055 RMK AO2
KDEH 162055Z AUTO 32007KT 10SM CLR M11/M14 A3055 RMK AO2
KDEH 162035Z AUTO 31008KT 10SM SCT013 M11/M14 A3055 RMK AO2
KDEH 162015Z AUTO 31007KT 10SM OVC013 M11/M14 A3055 RMK AO2
KDEH 161955Z AUTO 34007KT 10SM OVC013 M12/M14 A3055 RMK AO2
KDEH 161935Z AUTO 34009KT 10SM OVC013 M12/M14 A3056 RMK AO2
KDEH 161915Z AUTO 32012KT 10SM OVC012 M12/M14 A3056 RMK AO2
KDEH 161855Z AUTO 32007KT 9SM -SN BKN012 M12/M14 A3056 RMK AO2
KDEH 161835Z AUTO 32010KT 10SM OVC012 M12/M14 A3057 RMK AO2
KDEH 161815Z AUTO 33010KT 10SM -SN OVC012 M13/M15 A3057 RMK AO2
KDEH 161755Z AUTO 34009KT 10SM BKN011 M13/M15 A3058 RMK AO2
KDEH 161735Z AUTO 33008KT 9SM -SN BKN009 BKN013 M13/M15 A3058 RMK AO2
KDEH 161715Z AUTO 33010KT 10SM -SN OVC009 M14/M16 A3059 RMK AO2
KDEH 161655Z AUTO 33011KT 10SM -SN OVC010 M14/M16 A3059 RMK AO2
KDEH 161635Z AUTO 33011KT 10SM OVC009 M14/M17 A3059 RMK AO2
KDEH 161615Z AUTO 33008G14KT 10SM -SN OVC009 M15/M17 A3059 RMK AO2
KDEH 161555Z AUTO 34010G15KT 10SM BKN009 M16/M18 A3059 RMK AO2
KDEH 161535Z AUTO 34013G18KT 10SM SCT009 M16/M18 A3058 RMK AO2
KDEH 161515Z AUTO 34015G20KT 10SM CLR M16/M18 A3057 RMK AO2
KDEH 161455Z AUTO 34012KT 10SM FEW005 M16/M18 A3057 RMK AO2
KDEH 161435Z AUTO 33013KT 10SM BKN007 BKN010 M15/M18 A3056 RMK AO2
KDEH 161415Z AUTO 34012KT 9SM OVC008 M15/M17 A3055 RMK AO2
KDEH 161355Z AUTO 33009KT 9SM -SN BKN007 OVC010 M14/M16 A3054 RMK AO2
KDEH 161335Z AUTO 33008KT 10SM OVC010 M14/M16 A3054 RMK AO2
KDEH 161315Z AUTO 32009KT 10SM -SN OVC009 M14/M16 A3053 RMK AO2
KDEH 161255Z AUTO 32010KT 10SM SCT004 OVC010 M14/M16 A3053 RMK AO2
KDEH 161235Z AUTO 33008KT 10SM FEW004 OVC010 M15/M16 A3053 RMK AO2
KDEH 161215Z AUTO 32007KT 10SM -SN OVC010 M15/M17 A3052 RMK AO2
KDEH 161155Z AUTO 33009KT 8SM -SN SCT007 OVC012 M15/M17 A3052 RMK AO2
KDEH 161135Z AUTO 33009KT 8SM -SN BKN007 OVC012 M15/M17 A3051 RMK AO2
KDEH 161115Z AUTO 33009KT 9SM -SN OVC006 M15/M17 A3050 RMK AO2
KDEH 161055Z AUTO 33010KT 10SM -SN OVC007 M15/M17 A3050 RMK AO2
KDEH 161035Z AUTO 33010KT 10SM OVC007 M15/M17 A3050 RMK AO2
KDEH 161015Z AUTO 32008KT 10SM OVC007 M15/M17 A3049 RMK AO2
KDEH 160955Z AUTO 33010KT 10SM OVC007 M15/M17 A3049 RMK AO2
KDEH 160935Z AUTO 33011G17KT 10SM -SN BKN007 BKN010 OVC043 M14/M17 A3048 RMK AO2
KDEH 160915Z AUTO 34009KT 10SM FEW008 OVC017 M14/M17 A3048 RMK AO2
KDEH 160855Z AUTO 33010KT 10SM FEW007 OVC016 M14/M17 A3047 RMK AO2
KDEH 160835Z AUTO 33009G14KT 10SM FEW006 OVC016 M14/M17 A3047 RMK AO2
KDEH 160815Z AUTO 33011KT 10SM OVC016 M15/M17 A3046 RMK AO2
KDEH 160755Z AUTO 33010G15KT 10SM FEW006 OVC014 M15/M17 A3046 RMK AO2
KDEH 160735Z AUTO 33010KT 7SM -SN FEW007 OVC015 M15/M17 A3045 RMK AO2
KDEH 160715Z AUTO 33009KT 10SM OVC014 M15/M18 A3045 RMK AO2
KDEH 160655Z AUTO 32012KT 7SM -SN OVC014 M16/M18 A3044 RMK AO2
KDEH 160635Z AUTO 32010KT 9SM -SN OVC014 M16/M19 A3044 RMK AO2
KDEH 160615Z AUTO 31007KT 6SM -SN SCT007 OVC015 M17/M19 A3044 RMK AO2
KDEH 160555Z AUTO 32008KT 4SM -SN SCT008 OVC017 M17/M19 A3044 RMK AO2
KDEH 160535Z AUTO 32008KT 6SM -SN FEW008 OVC018 M17/M20 A3044 RMK AO2
KDEH 160515Z AUTO 32012KT 10SM FEW009 BKN019 OVC033 M17/M20 A3044 RMK AO2
KDEH 160455Z AUTO 32010KT 10SM FEW018 SCT027 BKN034 M17/M20 A3043 RMK AO2
KDEH 160435Z AUTO 32013KT 9SM -SN SCT017 BKN024 OVC060 M17/M20 A3043 RMK AO2
KDEH 160415Z AUTO 32010G15KT 7SM -SN SCT016 BKN026 OVC055 M17/M20 A3042 RMK AO2
KDEH 160355Z AUTO 31009KT 10SM -SN SCT028 SCT039 OVC055 M17/M20 A3042 RMK AO2
KDEH 160335Z AUTO 32011KT 10SM SCT024 BKN029 OVC060 M17/M20 A3041 RMK AO2
KDEH 160315Z AUTO 32011KT 7SM -SN FEW019 OVC024 M17/M20 A3041 RMK AO2
KDEH 160255Z AUTO 32012KT 7SM -SN OVC026 M17/M20 A3041 RMK AO2
KDEH 160235Z AUTO 32012KT 10SM -SN SCT016 OVC026 M17/M20 A3040 RMK AO2
KDEH 160215Z AUTO 32013KT 10SM OVC016 M17/M20 A3040 RMK AO2
KDEH 160155Z AUTO 32013KT 10SM OVC017 M17/M20 A3040 RMK AO2
KDEH 160135Z AUTO 32013G18KT 10SM -SN OVC018 M17/M20 A3039 RMK AO2
KDEH 160115Z AUTO 31009G15KT 280V340 10SM OVC018 M17/M20 A3039 RMK AO2
KDEH 160055Z AUTO 31008G14KT 10SM -SN OVC019 M17/M20 A3038 RMK AO2
KDEH 160035Z AUTO 31009G15KT 10SM FEW016 OVC023 M17/M20 A3038 RMK AO2
KDEH 160015Z AUTO 32010KT 10SM BKN024 OVC031 M16/M19 A3037 RMK AO2
KDEH 152355Z AUTO 31009G16KT 10SM SCT010 BKN021 OVC027 M16/M19 A3037 RMK AO2
KDEH 152335Z AUTO 32011KT 10SM SCT010 SCT021 OVC028 M16/M19 A3036 RMK AO2
KDEH 152315Z AUTO 31014G20KT 6SM HZ OVC027 M16/M19 A3035 RMK AO2
KDEH 152255Z AUTO 32012KT 5SM HZ BKN027 M15/M18 A3034 RMK AO2
KDEH 152235Z AUTO 32013KT 6SM HZ FEW027 M15/M18 A3033 RMK AO2
KDEH 152215Z AUTO 32015G20KT 7SM FEW020 FEW027 FEW090 M15/M18 A3031 RMK AO2
KDEH 152155Z AUTO 32018KT 4SM HZ FEW023 FEW028 M15/M18 A3030 RMK AO2
KDEH 152135Z AUTO 32015G21KT 3SM -SN SCT024 SCT028 M15/M18 A3030 RMK AO2
KDEH 152115Z AUTO 31011G19KT 5SM -SN BKN026 M14/M18 A3029 RMK AO2
KDEH 152055Z AUTO 32014G20KT 5SM HZ SCT022 BKN027 M14/M18 A3028 RMK AO2
KDEH 152035Z AUTO 32017G22KT 4SM -SN FEW022 BKN028 M14/M18 A3026 RMK AO2
KDEH 152015Z AUTO 31012G20KT 3SM -SN SCT021 BKN027 M14/M18 A3025 RMK AO2
KDEH 151955Z AUTO 32014KT 5SM HZ BKN021 BKN028 M14/M17 A3025 RMK AO2
KDEH 151935Z AUTO 33018KT 4SM -SN BKN021 BKN028 M14/M17 A3024 RMK AO2
KDEH 151915Z AUTO 33012G20KT 8SM BKN022 BKN028 M14/M18 A3024 RMK AO2
KDEH 151855Z AUTO 31012G19KT 9SM BKN022 OVC027 M14/M17 A3024 RMK AO2
KDEH 151835Z AUTO 33020G25KT 8SM BKN022 OVC027 M14/M18 A3024 RMK AO2
KDEH 151815Z AUTO 33017G25KT 7SM BKN022 OVC028 M14/M17 A3024 RMK AO2
KDEH 151755Z AUTO 33018KT 4SM -RA BKN023 BKN029 BKN035 M14/M17 A3023 RMK AO2
KDEH 151735Z AUTO 33016KT 3SM -RA SCT022 SCT029 M13/M17 A3023 RMK AO2
KDEH 151715Z AUTO 32013KT 2SM -SN FEW018 FEW022 BKN028 M13/M16 A3023 RMK AO2
KDEH 151655Z AUTO 33011G17KT 1 3/4SM -RA SCT020 BKN030 M13/M16 A3022 RMK AO2
KDEH 151615Z AUTO 35012G20KT 3SM -SN FEW021 BKN031 M13/M16 A3022 RMK AO2
KDEH 151555Z AUTO 32010G20KT -SN FEW018 BKN030 M13/M16 A3021 RMK AO2
KDEH 151535Z AUTO 33013KT 4SM -SN BKN029 M13/M16 A3019 RMK AO2
KDEH 151515Z AUTO 33015KT 4SM HZ FEW017 BKN028 OVC065 M13/M16 A3018 RMK AO2
KDEH 151455Z AUTO 32010G15KT 4SM HZ SCT027 OVC065 M13/M16 A3017 RMK AO2
KDEH 151435Z AUTO 33015G21KT 5SM HZ SCT025 SCT032 OVC060 M13/M16 A3016 RMK AO2
KDEH 151415Z AUTO 33013G20KT 4SM HZ BKN024 OVC060 M13/M15 A3015 RMK AO2
KDEH 151355Z AUTO 32013KT 3SM -SN SCT008 OVC025 M13/M15 A3014 RMK AO2
KDEH 151335Z AUTO 32013KT 4SM -SN SCT007 SCT015 OVC023 M13/M15 A3014 RMK AO2
KDEH 151315Z AUTO 32013G19KT 4SM -SN SCT008 SCT015 OVC022 M13/M15 A3013 RMK AO2
KDEH 151255Z AUTO 31011G17KT 5SM -SN SCT007 BKN011 OVC024 M13/M15 A3012 RMK AO2
KDEH 151235Z AUTO 31009G16KT 6SM -SN FEW007 SCT011 OVC026 M13/M15 A3012 RMK AO2
KDEH 151215Z AUTO 31008G14KT 7SM -SN SCT010 BKN026 OVC040 M13/M15 A3011 RMK AO2
KDEH 151155Z AUTO 31010G16KT 6SM -SN BKN009 OVC024 M13/M15 A3010 RMK AO2
KDEH 151135Z AUTO 30008G14KT 6SM -SN BKN009 OVC022 M13/M15 A3010 RMK AO2
KDEH 151115Z AUTO 30007KT 4SM -SN BKN009 OVC020 M13/M15 A3009 RMK AO2